HECA/CAI METAR and TAF weather

Enter ICAO airport designator
Station Type Date Time Source
HECA METAR 2019/04/23 00:00 UTC NOAA

HECA 230000Z 05006KT CAVOK 15/07 Q1020 NOSIG


Station Type Date Time Source
HECA Decoded METAR 2019/04/23 00:00 UTC NOAA

Cairo Airport, Egypt (HECA) 30-08N 031-24E 74M
Apr 22, 2019 - 08:00 PM EDT / 2019.04.23 0000 UTC
Wind: from the NE (050 degrees) at 7 MPH (6 KT):0
Visibility: greater than 7 mile(s):0
Temperature: 59 F (15 C)
Dew Point: 44 F (7 C)
Relative Humidity: 58%
Pressure (altimeter): 30.12 in. Hg (1020 hPa)
ob: HECA 230000Z 05006KT CAVOK 15/07 Q1020 NOSIG
cycle: 0

Station Type Date Time Source
HECA TAF 2019/04/22 18:21 UTC NOAA

TAF HECA 221700Z 2218/2324 35009KT 9999 FEW025
TEMPO 2300/2306 VRB03KT 3000BR NSC

Example: see airport list